DCA weather

Ronald Reagan Washington National Airport
Washington, District of Columbia, United States

Public forecast

Using degrees Fahrenheit for public forecast. Weather courtesy of forecast.io.

METAR (pilot weather report)

Retrieved 2019/04/21 10:52 UTC (1 hour ago):

KDCA 211052Z 20005KT 10SM FEW100 FEW250 11/06 A2994 RMK AO2 SLP137 T01110061

TAF (pilot weather forecast)

Retrieved 2019/04/21 06:22 UTC (6 hours ago):

TAF KDCA 210520Z 2106/2212 22005KT P6SM BKN060 BKN100 FM211000 21004KT P6SM SCT100 FM211700 28005KT P6SM BKN050 FM220800 32005KT P6SM SCT070